PWSweather.com
Personal Weather Stations
Station Observations
BARMORENO
El Ranal, Torre Del CampoES 23640

El RanalTorre Del CampoES 23640

Lat: 37.7683675, Lon: -3.9027072

Elevation: 2198.162

Station Type: PCE-FWS 20

http://www.bartolomemoreno.com/tiempo

Latest ConditionsUpdated 7:10:04 AM GMT+01:01 Thursday, Oct 18, 2018
Currently Today's Max Today's Min Today's Average
Temperature 58.8°F14.9°C 62.4°F16.9°C 58.1°F14.5°C 59.8°F15.4°C
Dew Point 54.7°F12.6°C 55.1°F12.8°C 53.3°F11.8°C 54.3°F12.4°C
Winds 2.1 mph S3.4 kmh S 4.4 mph -7.1 kmh - - 1.8 mph 2.9 kmh
Wind Gusts 8.3 mph13.4 kmh 8.3 mph13.4 kmh - -
Humidity 86% 88% 73% 82%
Pressure 29.70 in1005.8 mb 29.84 in1010.5 mb 29.70 in1005.8 mb -
Hour Temp Dew Point Humidity Winds Wind Gusts Pressure Precip Precip Rate Daily Precip Total
07:10 AM 58.8°F14.9°C 54.7°F12.6°C 86% 2.1 mph S3.4 kmh S 8.3 mph13.4 kmh 29.70 in1005.8 mb 0.00 in0.0 mm 0.00 in0.0 mm 0.00 in0.0 mm
07:05 AM 58.8°F14.9°C 54.7°F12.6°C 86% 1.3 mph SSE2.1 kmh SSE 4.5 mph7.2 kmh 29.70 in1005.8 mb 0.00 in0.0 mm 0.00 in0.0 mm 0.00 in0.0 mm
07:00 AM 58.8°F14.9°C 54.7°F12.6°C 86% 2.4 mph SE3.9 kmh SE 5.4 mph8.7 kmh 29.70 in1005.8 mb 0.00 in0.0 mm 0.00 in0.0 mm 0.00 in0.0 mm
06:55 AM 59.0°F15.0°C 54.5°F12.5°C 85% 2.9 mph ESE4.7 kmh ESE 5.4 mph8.7 kmh 29.70 in1005.8 mb 0.00 in0.0 mm 0.00 in0.0 mm 0.00 in0.0 mm
06:50 AM 59.0°F15.0°C 54.5°F12.5°C 85% 2.8 mph ESE4.5 kmh ESE 5.4 mph8.7 kmh 29.70 in1005.8 mb 0.00 in0.0 mm 0.00 in0.0 mm 0.00 in0.0 mm
06:45 AM 59.0°F15.0°C 54.5°F12.5°C 85% 2.9 mph SE4.7 kmh SE 7.6 mph12.2 kmh 29.70 in1005.8 mb 0.00 in0.0 mm 0.00 in0.0 mm 0.00 in0.0 mm
06:40 AM 59.0°F15.0°C 54.5°F12.5°C 85% 3.4 mph SE5.5 kmh SE 7.6 mph12.2 kmh 29.71 in1006.1 mb 0.00 in0.0 mm 0.00 in0.0 mm 0.00 in0.0 mm
06:35 AM 59.2°F15.1°C 54.7°F12.6°C 85% 3.2 mph ESE5.1 kmh ESE 7.6 mph12.2 kmh 29.71 in1006.1 mb 0.00 in0.0 mm 0.00 in0.0 mm 0.00 in0.0 mm
06:30 AM 59.2°F15.1°C 54.7°F12.6°C 85% 3.2 mph E5.1 kmh E 6.9 mph11.1 kmh 29.71 in1006.1 mb 0.00 in0.0 mm 0.00 in0.0 mm 0.00 in0.0 mm
06:25 AM 59.2°F15.1°C 54.4°F12.4°C 84% 3.5 mph ESE5.6 kmh ESE 6.9 mph11.1 kmh 29.71 in1006.1 mb 0.00 in0.0 mm 0.00 in0.0 mm 0.00 in0.0 mm
06:20 AM 59.2°F15.1°C 54.4°F12.4°C 84% 3.1 mph ESE5.0 kmh ESE 6.9 mph11.1 kmh 29.71 in1006.1 mb 0.00 in0.0 mm 0.00 in0.0 mm 0.00 in0.0 mm
06:15 AM 59.2°F15.1°C 54.4°F12.4°C 84% 2.6 mph SE4.2 kmh SE 5.4 mph8.7 kmh 29.71 in1006.1 mb 0.00 in0.0 mm 0.00 in0.0 mm 0.00 in0.0 mm
06:10 AM 59.2°F15.1°C 54.4°F12.4°C 84% 2.0 mph SSE3.2 kmh SSE 5.4 mph8.7 kmh 29.72 in1006.4 mb 0.00 in0.0 mm 0.00 in0.0 mm 0.00 in0.0 mm
06:05 AM 59.4°F15.2°C 54.9°F12.7°C 85% 1.7 mph SW2.7 kmh SW 4.5 mph7.2 kmh 29.72 in1006.4 mb 0.00 in0.0 mm 0.00 in0.0 mm 0.00 in0.0 mm
06:00 AM 59.4°F15.2°C 54.9°F12.7°C 85% 1.9 mph SSE3.1 kmh SSE 4.5 mph7.2 kmh 29.71 in1006.1 mb 0.00 in0.0 mm 0.00 in0.0 mm 0.00 in0.0 mm
05:55 AM 59.2°F15.1°C 54.7°F12.6°C 85% 2.1 mph E3.4 kmh E 4.5 mph7.2 kmh 29.72 in1006.4 mb 0.00 in0.0 mm 0.00 in0.0 mm 0.00 in0.0 mm
05:45 AM 59.0°F15.0°C 55.1°F12.8°C 87% 2.2 mph SSE3.5 kmh SSE 5.4 mph8.7 kmh 29.72 in1006.4 mb 0.00 in0.0 mm 0.00 in0.0 mm 0.00 in0.0 mm
05:40 AM 58.6°F14.8°C 55.1°F12.8°C 88% 2.2 mph SW3.5 kmh SW 5.4 mph8.7 kmh 29.72 in1006.4 mb 0.00 in0.0 mm 0.00 in0.0 mm 0.00 in0.0 mm
05:35 AM 58.3°F14.6°C 54.8°F12.7°C 88% 2.0 mph SW3.2 kmh SW 4.5 mph7.2 kmh 29.72 in1006.4 mb 0.00 in0.0 mm 0.00 in0.0 mm 0.00 in0.0 mm
05:30 AM 58.1°F14.5°C 54.6°F12.6°C 88% 2.1 mph SW3.4 kmh SW 4.5 mph7.2 kmh 29.73 in1006.8 mb 0.00 in0.0 mm 0.00 in0.0 mm 0.00 in0.0 mm
05:25 AM 58.1°F14.5°C 54.6°F12.6°C 88% 1.9 mph SW3.1 kmh SW 3.1 mph5.0 kmh 29.73 in1006.8 mb 0.00 in0.0 mm 0.00 in0.0 mm 0.00 in0.0 mm
05:20 AM 58.3°F14.6°C 54.8°F12.7°C 88% 1.3 mph SW2.1 kmh SW 3.1 mph5.0 kmh 29.72 in1006.4 mb 0.00 in0.0 mm 0.00 in0.0 mm 0.00 in0.0 mm
05:15 AM 58.3°F14.6°C 54.4°F12.4°C 87% 0.9 mph SW1.4 kmh SW 2.2 mph3.5 kmh 29.73 in1006.8 mb 0.00 in0.0 mm 0.00 in0.0 mm 0.00 in0.0 mm
05:10 AM 58.5°F14.7°C 54.6°F12.6°C 87% 0.4 mph WSW0.6 kmh WSW 2.2 mph3.5 kmh 29.73 in1006.8 mb 0.00 in0.0 mm 0.00 in0.0 mm 0.00 in0.0 mm
05:05 AM 58.6°F14.8°C 54.5°F12.5°C 86% 0.1 mph NNE0.2 kmh NNE 1.6 mph2.6 kmh 29.73 in1006.8 mb 0.00 in0.0 mm 0.00 in0.0 mm 0.00 in0.0 mm
05:00 AM 58.6°F14.8°C 54.5°F12.5°C 86% 0.4 mph NNE0.6 kmh NNE 2.2 mph3.5 kmh 29.73 in1006.8 mb 0.00 in0.0 mm 0.00 in0.0 mm 0.00 in0.0 mm
04:55 AM 59.0°F15.0°C 54.5°F12.5°C 85% 0.8 mph N1.3 kmh N 2.2 mph3.5 kmh 29.73 in1006.8 mb 0.00 in0.0 mm 0.00 in0.0 mm 0.00 in0.0 mm
04:50 AM 59.2°F15.1°C 54.7°F12.6°C 85% 0.8 mph NNE1.3 kmh NNE 2.2 mph3.5 kmh 29.73 in1006.8 mb 0.00 in0.0 mm 0.00 in0.0 mm 0.00 in0.0 mm
04:45 AM 59.4°F15.2°C 54.5°F12.5°C 84% 0.6 mph NE1.0 kmh NE 2.2 mph3.5 kmh 29.73 in1006.8 mb 0.00 in0.0 mm 0.00 in0.0 mm 0.00 in0.0 mm
04:40 AM 59.4°F15.2°C 54.5°F12.5°C 84% 0.8 mph ENE1.3 kmh ENE 2.2 mph3.5 kmh 29.73 in1006.8 mb 0.00 in0.0 mm 0.00 in0.0 mm 0.00 in0.0 mm
04:35 AM 59.5°F15.3°C 54.7°F12.6°C 84% 1.2 mph NE1.9 kmh NE 3.1 mph5.0 kmh 29.73 in1006.8 mb 0.00 in0.0 mm 0.00 in0.0 mm 0.00 in0.0 mm
04:30 AM 59.5°F15.3°C 54.4°F12.4°C 83% 1.3 mph NNE2.1 kmh NNE 3.1 mph5.0 kmh 29.73 in1006.8 mb 0.00 in0.0 mm 0.00 in0.0 mm 0.00 in0.0 mm
04:25 AM 59.5°F15.3°C 54.4°F12.4°C 83% 0.9 mph N1.4 kmh N 3.1 mph5.0 kmh 29.73 in1006.8 mb 0.00 in0.0 mm 0.00 in0.0 mm 0.00 in0.0 mm
04:20 AM 59.5°F15.3°C 54.4°F12.4°C 83% 0.3 mph N0.5 kmh N 3.1 mph5.0 kmh 29.74 in1007.1 mb 0.00 in0.0 mm 0.00 in0.0 mm 0.00 in0.0 mm
04:15 AM 59.5°F15.3°C 54.4°F12.4°C 83% Calm Calm -- 29.74 in1007.1 mb 0.00 in0.0 mm 0.00 in0.0 mm 0.00 in0.0 mm
04:10 AM 59.5°F15.3°C 54.4°F12.4°C 83% Calm Calm 0.7 mph1.1 kmh 29.74 in1007.1 mb 0.00 in0.0 mm 0.00 in0.0 mm 0.00 in0.0 mm
04:05 AM 59.5°F15.3°C 54.4°F12.4°C 83% 0.3 mph W0.5 kmh W 1.6 mph2.6 kmh 29.74 in1007.1 mb 0.00 in0.0 mm 0.00 in0.0 mm 0.00 in0.0 mm
04:00 AM 59.5°F15.3°C 54.4°F12.4°C 83% 0.6 mph W1.0 kmh W 2.2 mph3.5 kmh 29.74 in1007.1 mb 0.00 in0.0 mm 0.00 in0.0 mm 0.00 in0.0 mm
03:55 AM 59.4°F15.2°C 54.2°F12.3°C 83% 0.7 mph W1.1 kmh W 2.2 mph3.5 kmh 29.74 in1007.1 mb 0.00 in0.0 mm 0.00 in0.0 mm 0.00 in0.0 mm
03:50 AM 59.5°F15.3°C 54.4°F12.4°C 83% 0.4 mph W0.6 kmh W 1.6 mph2.6 kmh 29.75 in1007.5 mb 0.00 in0.0 mm 0.00 in0.0 mm 0.00 in0.0 mm
03:45 AM 59.4°F15.2°C 53.9°F12.2°C 82% 0.2 mph WSW0.3 kmh WSW 1.6 mph2.6 kmh 29.75 in1007.5 mb 0.00 in0.0 mm 0.00 in0.0 mm 0.00 in0.0 mm
03:40 AM 59.4°F15.2°C 53.9°F12.2°C 82% 0.3 mph SSW0.5 kmh SSW 1.6 mph2.6 kmh 29.75 in1007.5 mb 0.00 in0.0 mm 0.00 in0.0 mm 0.00 in0.0 mm
03:35 AM 59.5°F15.3°C 54.1°F12.3°C 82% 0.6 mph S1.0 kmh S 3.1 mph5.0 kmh 29.75 in1007.5 mb 0.00 in0.0 mm 0.00 in0.0 mm 0.00 in0.0 mm
03:30 AM 59.5°F15.3°C 54.1°F12.3°C 82% 1.2 mph SSE1.9 kmh SSE 3.1 mph5.0 kmh 29.76 in1007.8 mb 0.00 in0.0 mm 0.00 in0.0 mm 0.00 in0.0 mm
03:25 AM 59.5°F15.3°C 54.4°F12.4°C 83% 2.0 mph S3.2 kmh S 3.8 mph6.1 kmh 29.76 in1007.8 mb 0.00 in0.0 mm 0.00 in0.0 mm 0.00 in0.0 mm
03:20 AM 59.4°F15.2°C 54.2°F12.3°C 83% 2.0 mph S3.2 kmh S 4.5 mph7.2 kmh 29.76 in1007.8 mb 0.00 in0.0 mm 0.00 in0.0 mm 0.00 in0.0 mm
03:15 AM 59.4°F15.2°C 54.2°F12.3°C 83% 2.4 mph S3.9 kmh S 6.0 mph9.7 kmh 29.76 in1007.8 mb 0.00 in0.0 mm 0.00 in0.0 mm 0.00 in0.0 mm
03:10 AM 59.0°F15.0°C 54.2°F12.3°C 84% 2.7 mph S4.3 kmh S 6.0 mph9.7 kmh 29.76 in1007.8 mb 0.00 in0.0 mm 0.00 in0.0 mm 0.00 in0.0 mm
03:05 AM 58.8°F14.9°C 54.3°F12.4°C 85% 1.9 mph S3.1 kmh S 3.8 mph6.1 kmh 29.76 in1007.8 mb 0.00 in0.0 mm 0.00 in0.0 mm 0.00 in0.0 mm
03:00 AM 58.8°F14.9°C 54.3°F12.4°C 85% 1.5 mph SSE2.4 kmh SSE 3.8 mph6.1 kmh 29.77 in1008.1 mb 0.00 in0.0 mm 0.00 in0.0 mm 0.00 in0.0 mm
02:55 AM 58.6°F14.8°C 54.2°F12.3°C 85% 2.2 mph S3.5 kmh S 4.5 mph7.2 kmh 29.77 in1008.1 mb 0.00 in0.0 mm 0.00 in0.0 mm 0.00 in0.0 mm
02:50 AM 58.8°F14.9°C 54.3°F12.4°C 85% 3.2 mph S5.1 kmh S 5.4 mph8.7 kmh 29.77 in1008.1 mb 0.00 in0.0 mm 0.00 in0.0 mm 0.00 in0.0 mm
02:45 AM 58.8°F14.9°C 54.3°F12.4°C 85% 2.7 mph S4.3 kmh S 5.4 mph8.7 kmh 29.77 in1008.1 mb 0.00 in0.0 mm 0.00 in0.0 mm 0.00 in0.0 mm
02:40 AM 59.0°F15.0°C 54.2°F12.3°C 84% 2.3 mph S3.7 kmh S 4.5 mph7.2 kmh 29.78 in1008.5 mb 0.00 in0.0 mm 0.00 in0.0 mm 0.00 in0.0 mm
02:35 AM 59.0°F15.0°C 54.2°F12.3°C 84% 2.5 mph SSE4.0 kmh SSE 4.5 mph7.2 kmh 29.78 in1008.5 mb 0.00 in0.0 mm 0.00 in0.0 mm 0.00 in0.0 mm
02:30 AM 59.2°F15.1°C 54.0°F12.2°C 83% 2.2 mph SSE3.5 kmh SSE 3.8 mph6.1 kmh 29.79 in1008.8 mb 0.00 in0.0 mm 0.00 in0.0 mm 0.00 in0.0 mm
02:25 AM 59.7°F15.4°C 54.6°F12.6°C 83% 1.8 mph S2.9 kmh S 3.8 mph6.1 kmh 29.79 in1008.8 mb 0.00 in0.0 mm 0.00 in0.0 mm 0.00 in0.0 mm
02:20 AM 59.9°F15.5°C 54.7°F12.6°C 83% 1.1 mph SSE1.8 kmh SSE 3.1 mph5.0 kmh 29.79 in1008.8 mb 0.00 in0.0 mm 0.00 in0.0 mm 0.00 in0.0 mm
02:15 AM 60.3°F15.7°C 55.1°F12.8°C 83% 0.7 mph E1.1 kmh E 2.2 mph3.5 kmh 29.79 in1008.8 mb 0.00 in0.0 mm 0.00 in0.0 mm 0.00 in0.0 mm
02:10 AM 60.3°F15.7°C 54.8°F12.7°C 82% 0.8 mph NE1.3 kmh NE 3.1 mph5.0 kmh 29.79 in1008.8 mb 0.00 in0.0 mm 0.00 in0.0 mm 0.00 in0.0 mm
02:05 AM 60.4°F15.8°C 54.6°F12.6°C 81% 1.3 mph NE2.1 kmh NE 3.1 mph5.0 kmh 29.79 in1008.8 mb 0.00 in0.0 mm 0.00 in0.0 mm 0.00 in0.0 mm
02:00 AM 60.4°F15.8°C 54.6°F12.6°C 81% 1.4 mph E2.3 kmh E 3.1 mph5.0 kmh 29.80 in1009.1 mb 0.00 in0.0 mm 0.00 in0.0 mm 0.00 in0.0 mm
01:55 AM 60.4°F15.8°C 54.3°F12.4°C 80% 1.2 mph S1.9 kmh S 3.1 mph5.0 kmh 29.80 in1009.1 mb 0.00 in0.0 mm 0.00 in0.0 mm 0.00 in0.0 mm
01:50 AM 60.6°F15.9°C 54.4°F12.4°C 80% 0.9 mph S1.4 kmh S 2.2 mph3.5 kmh 29.80 in1009.1 mb 0.00 in0.0 mm 0.00 in0.0 mm 0.00 in0.0 mm
01:45 AM 60.8°F16.0°C 53.9°F12.2°C 78% 0.4 mph S0.6 kmh S 2.2 mph3.5 kmh 29.80 in1009.1 mb 0.00 in0.0 mm 0.00 in0.0 mm 0.00 in0.0 mm
01:40 AM 61.0°F16.1°C 53.7°F12.1°C 77% 0.2 mph S0.3 kmh S 2.2 mph3.5 kmh 29.80 in1009.1 mb 0.00 in0.0 mm 0.00 in0.0 mm 0.00 in0.0 mm
01:35 AM 61.0°F16.1°C 54.1°F12.3°C 78% 1.3 mph S2.1 kmh S 5.4 mph8.7 kmh 29.80 in1009.1 mb 0.00 in0.0 mm 0.00 in0.0 mm 0.00 in0.0 mm
01:30 AM 61.0°F16.1°C 54.1°F12.3°C 78% 2.7 mph S4.3 kmh S 5.4 mph8.7 kmh 29.80 in1009.1 mb 0.00 in0.0 mm 0.00 in0.0 mm 0.00 in0.0 mm
01:25 AM 60.8°F16.0°C 54.3°F12.4°C 79% 3.7 mph S6.0 kmh S 6.9 mph11.1 kmh 29.80 in1009.1 mb 0.00 in0.0 mm 0.00 in0.0 mm 0.00 in0.0 mm
01:20 AM 60.8°F16.0°C 53.9°F12.2°C 78% 3.9 mph S6.3 kmh S 6.9 mph11.1 kmh 29.80 in1009.1 mb 0.00 in0.0 mm 0.00 in0.0 mm 0.00 in0.0 mm
01:15 AM 60.8°F16.0°C 53.9°F12.2°C 78% 3.0 mph S4.8 kmh S 5.4 mph8.7 kmh 29.80 in1009.1 mb 0.00 in0.0 mm 0.00 in0.0 mm 0.00 in0.0 mm
01:10 AM 61.0°F16.1°C 53.7°F12.1°C 77% 2.1 mph S3.4 kmh S 5.4 mph8.7 kmh 29.81 in1009.5 mb 0.00 in0.0 mm 0.00 in0.0 mm 0.00 in0.0 mm
01:05 AM 61.2°F16.2°C 53.6°F12.0°C 76% 1.5 mph S2.4 kmh S 3.1 mph5.0 kmh 29.81 in1009.5 mb 0.00 in0.0 mm 0.00 in0.0 mm 0.00 in0.0 mm
01:00 AM 61.2°F16.2°C 53.6°F12.0°C 76% 1.1 mph S1.8 kmh S 3.1 mph5.0 kmh 29.81 in1009.5 mb 0.00 in0.0 mm 0.00 in0.0 mm 0.00 in0.0 mm
12:55 AM 61.3°F16.3°C 53.4°F11.9°C 75% 1.2 mph S1.9 kmh S 3.1 mph5.0 kmh 29.81 in1009.5 mb 0.00 in0.0 mm 0.00 in0.0 mm 0.00 in0.0 mm
12:50 AM 61.5°F16.4°C 53.5°F11.9°C 75% 1.5 mph SSE2.4 kmh SSE 3.1 mph5.0 kmh 29.82 in1009.8 mb 0.00 in0.0 mm 0.00 in0.0 mm 0.00 in0.0 mm
12:45 AM 61.7°F16.5°C 53.3°F11.8°C 74% 1.5 mph SSE2.4 kmh SSE 3.8 mph6.1 kmh 29.82 in1009.8 mb 0.00 in0.0 mm 0.00 in0.0 mm 0.00 in0.0 mm
12:40 AM 61.9°F16.6°C 53.5°F11.9°C 74% 1.8 mph S2.9 kmh S 4.5 mph7.2 kmh 29.82 in1009.8 mb 0.00 in0.0 mm 0.00 in0.0 mm 0.00 in0.0 mm
12:35 AM 62.1°F16.7°C 53.7°F12.1°C 74% 2.4 mph S3.9 kmh S 5.4 mph8.7 kmh 29.82 in1009.8 mb 0.00 in0.0 mm 0.00 in0.0 mm 0.00 in0.0 mm
12:30 AM 62.2°F16.8°C 53.9°F12.2°C 74% 2.3 mph S3.7 kmh S 5.4 mph8.7 kmh 29.83 in1010.2 mb 0.00 in0.0 mm 0.00 in0.0 mm 0.00 in0.0 mm
12:25 AM 62.2°F16.8°C 53.5°F11.9°C 73% 2.0 mph S3.2 kmh S 4.5 mph7.2 kmh 29.83 in1010.2 mb 0.00 in0.0 mm 0.00 in0.0 mm 0.00 in0.0 mm
12:20 AM 62.4°F16.9°C 53.7°F12.1°C 73% 2.4 mph SSW3.9 kmh SSW 6.0 mph9.7 kmh 29.83 in1010.2 mb 0.00 in0.0 mm 0.00 in0.0 mm 0.00 in0.0 mm
12:15 AM 62.2°F16.8°C 53.5°F11.9°C 73% 3.5 mph SW5.6 kmh SW 6.9 mph11.1 kmh 29.83 in1010.2 mb 0.00 in0.0 mm 0.00 in0.0 mm 0.00 in0.0 mm
12:10 AM 62.2°F16.8°C 53.5°F11.9°C 73% 4.2 mph SW6.8 kmh SW 7.6 mph12.2 kmh 29.84 in1010.5 mb 0.00 in0.0 mm 0.00 in0.0 mm 0.00 in0.0 mm
12:05 AM 62.2°F16.8°C 53.5°F11.9°C 73% 4.4 mph SW7.1 kmh SW 7.6 mph12.2 kmh 29.84 in1010.5 mb 0.00 in0.0 mm 0.00 in0.0 mm 0.00 in0.0 mm
12:00 AM 62.4°F16.9°C 53.7°F12.1°C 73% 4.1 mph SW6.6 kmh SW 6.9 mph11.1 kmh 29.84 in1010.5 mb 0.00 in0.0 mm 0.00 in0.0 mm 0.00 in0.0 mm